Map

Track Data

SID SEASON NUMBER BASIN SUBBASIN NAME ISO_TIME NATURE LAT LON WMO_WIND WMO_PRES WMO_AGENCY TRACK_TYPE DIST2LAND LANDFALL IFLAG USA_AGENCY USA_ATCF_ID USA_LAT USA_LON USA_RECORD USA_STATUS USA_WIND USA_PRES USA_SSHS USA_R34_NE USA_R34_SE USA_R34_SW USA_R34_NW USA_R50_NE USA_R50_SE USA_R50_SW USA_R50_NW USA_R64_NE USA_R64_SE USA_R64_SW USA_R64_NW USA_POCI USA_ROCI USA_RMW USA_EYE TOKYO_LAT TOKYO_LON TOKYO_GRADE TOKYO_WIND TOKYO_PRES TOKYO_R50_DIR TOKYO_R50_LONG TOKYO_R50_SHORT TOKYO_R30_DIR TOKYO_R30_LONG TOKYO_R30_SHORT TOKYO_LAND CMA_LAT CMA_LON CMA_CAT CMA_WIND CMA_PRES HKO_LAT HKO_LON HKO_CAT HKO_WIND HKO_PRES NEWDELHI_LAT NEWDELHI_LON NEWDELHI_GRADE NEWDELHI_WIND NEWDELHI_PRES NEWDELHI_CI NEWDELHI_DP NEWDELHI_POCI REUNION_LAT REUNION_LON REUNION_TYPE REUNION_WIND REUNION_PRES REUNION_TNUM REUNION_CI REUNION_RMW REUNION_R34_NE REUNION_R34_SE REUNION_R34_SW REUNION_R34_NW REUNION_R50_NE REUNION_R50_SE REUNION_R50_SW REUNION_R50_NW REUNION_R64_NE REUNION_R64_SE REUNION_R64_SW REUNION_R64_NW BOM_LAT BOM_LON BOM_TYPE BOM_WIND BOM_PRES BOM_TNUM BOM_CI BOM_RMW BOM_R34_NE BOM_R34_SE BOM_R34_SW BOM_R34_NW BOM_R50_NE BOM_R50_SE BOM_R50_SW BOM_R50_NW BOM_R64_NE BOM_R64_SE BOM_R64_SW BOM_R64_NW BOM_ROCI BOM_POCI BOM_EYE BOM_POS_METHOD BOM_PRES_METHOD NADI_LAT NADI_LON NADI_CAT NADI_WIND NADI_PRES WELLINGTON_LAT WELLINGTON_LON WELLINGTON_WIND WELLINGTON_PRES DS824_LAT DS824_LON DS824_STAGE DS824_WIND DS824_PRES TD9636_LAT TD9636_LON TD9636_STAGE TD9636_WIND TD9636_PRES TD9635_LAT TD9635_LON TD9635_WIND TD9635_PRES TD9635_ROCI NEUMANN_LAT NEUMANN_LON NEUMANN_CLASS NEUMANN_WIND NEUMANN_PRES MLC_LAT MLC_LON MLC_CLASS MLC_WIND MLC_PRES USA_GUST BOM_GUST BOM_GUST_PER REUNION_GUST REUNION_GUST_PER USA_SEAHGT USA_SEARAD_NE USA_SEARAD_SE USA_SEARAD_SW USA_SEARAD_NW STORM_SPEED STORM_DIR
1959280N23268 1959 91 NA GM IRENE 1959-10-06 18:00:00 TS 23.2000 -92.5000 30 hurdat_atl main 326 326 O_____________ hurdat_atl AL101959 23.2000 -92.5000 TD 30 -1 12 32
1959280N23268 1959 91 NA GM IRENE 1959-10-06 21:00:00 TS 23.7002 -92.1556 main 350 344 P_____________ AL101959 23.7002 -92.1556 TD 30 -1 12 33
1959280N23268 1959 91 NA GM IRENE 1959-10-07 00:00:00 TS 24.2000 -91.8000 30 hurdat_atl main 379 379 O_____________ hurdat_atl AL101959 24.2000 -91.8000 TD 30 -1 12 34
1959280N23268 1959 91 NA GM IRENE 1959-10-07 03:00:00 TS 24.6998 -91.4221 main 417 417 P_____________ AL101959 24.6998 -91.4221 TD 30 -1 12 36
1959280N23268 1959 91 NA GM IRENE 1959-10-07 06:00:00 TS 25.2000 -91.0000 30 hurdat_atl main 435 379 O_____________ hurdat_atl AL101959 25.2000 -91.0000 TD 30 -1 13 40
1959280N23268 1959 91 NA GM IRENE 1959-10-07 09:00:00 TS 25.6925 -90.5147 main 379 323 P_____________ AL101959 25.6925 -90.5147 TD 32 -1 14 42
1959280N23268 1959 91 NA GM IRENE 1959-10-07 12:00:00 TS 26.2000 -90.0000 35 1003 hurdat_atl main 323 259 O_____________ hurdat_atl AL101959 26.2000 -90.0000 TS 35 1003 0 14 41
1959280N23268 1959 91 NA GM IRENE 1959-10-07 15:00:00 TS 26.7425 -89.4848 main 259 190 P_____________ AL101959 26.7425 -89.4848 TS 35 1002 0 14 39
1959280N23268 1959 91 NA GM IRENE 1959-10-07 18:00:00 TS 27.3000 -89.0000 35 1001 hurdat_atl main 190 142 O_____________ hurdat_atl AL101959 27.3000 -89.0000 TS 35 1001 0 14 37
1959280N23268 1959 91 NA GM IRENE 1959-10-07 21:00:00 TS 27.8574 -88.5549 main 132 110 P_____________ AL101959 27.8574 -88.5549 TS 35 1001 0 13 33
1959280N23268 1959 91 NA GM IRENE 1959-10-08 00:00:00 TS 28.4000 -88.2000 35 1002 hurdat_atl main 110 98 O_____________ hurdat_atl AL101959 28.4000 -88.2000 TS 35 1002 0 11 27
1959280N23268 1959 91 NA GM IRENE 1959-10-08 03:00:00 TS 28.8750 -87.9619 main 99 91 P_____________ AL101959 28.8750 -87.9619 TS 37 1001 0 11 19
1959280N23268 1959 91 NA GM IRENE 1959-10-08 06:00:00 TS 29.4000 -87.8000 40 hurdat_atl main 91 22 I_____________ hurdat_atl AL101959 29.4000 -87.8000 TS 40 1000 0 13 13
1959280N23268 1959 91 NA GM IRENE 1959-10-08 09:00:00 TS 30.0989 -87.6282 main 22 0 P_____________ AL101959 30.0989 -87.6282 TS 40 1000 0 14 11
1959280N23268 1959 91 NA GM IRENE 1959-10-08 10:00:00 TS 30.3000 -87.6000 40 1000 hurdat_atl main 0 0 O_____________ hurdat_atl AL101959 30.3000 -87.6000 L TS 40 1000 0 10 0
1959280N23268 1959 91 NA NA IRENE 1959-10-08 12:00:00 TS 30.6000 -87.6000 40 1000 hurdat_atl main 0 0 O_____________ hurdat_atl AL101959 30.6000 -87.6000 TS 40 1000 0 10 13
1959280N23268 1959 91 NA NA IRENE 1959-10-08 15:00:00 TS 31.1268 -87.3766 main 0 0 P_____________ AL101959 31.1268 -87.3766 TS 35 1001 0 12 25
1959280N23268 1959 91 NA NA IRENE 1959-10-08 18:00:00 TS 31.7000 -87.0000 30 1003 hurdat_atl main 0 0 O_____________ hurdat_atl AL101959 31.7000 -87.0000 TD 30 1003 -1 13 28
1959280N23268 1959 91 NA NA IRENE 1959-10-08 21:00:00 TS 32.2647 -86.6795 main 0 0 P_____________ AL101959 32.2647 -86.6795 TD 27 -1 13 28
1959280N23268 1959 91 NA NA IRENE 1959-10-09 00:00:00 TS 32.8000 -86.3000 25 hurdat_atl main 0 0 O_____________ hurdat_atl AL101959 32.8000 -86.3000 TD 25 -1 12 34
1959280N23268 1959 91 NA NA IRENE 1959-10-09 03:00:00 TS 33.2716 -85.8814 main 0 0 P_____________ AL101959 33.2716 -85.8814 TD 22 -1 12 43
1959280N23268 1959 91 NA NA IRENE 1959-10-09 06:00:00 TS 33.7000 -85.3000 20 hurdat_atl main 0 0 O_____________ hurdat_atl AL101959 33.7000 -85.3000 TD 20 -1 14 54
1959280N23268 1959 91 NA NA IRENE 1959-10-09 09:00:00 TS 34.1072 -84.4748 main 0 0 P_____________ AL101959 34.1072 -84.4748 TD 20 -1 17 62
1959280N23268 1959 91 NA NA IRENE 1959-10-09 12:00:00 TS 34.5000 -83.5000 20 hurdat_atl main 0 O_____________ hurdat_atl AL101959 34.5000 -83.5000 TD 20 -1 18 64

About IBTrACS Database

This database is a web-friendly format of International Best Track Archive for Climate Stewardship (IBTrACS), a global best track data archive curated by NOAA dating back to 1842.

Updated: 2021-12-08